createdAt,value
2022-08-19T00:01:37.998Z,1.77
2022-08-19T00:04:07.641Z,1.40
2022-08-19T00:06:36.962Z,2.08
2022-08-19T00:09:06.562Z,1.80
2022-08-19T00:11:38.156Z,2.00
2022-08-19T00:14:07.096Z,1.40
2022-08-19T00:16:37.308Z,1.42
2022-08-19T00:19:04.542Z,1.20
2022-08-19T00:21:31.194Z,1.45
2022-08-19T00:24:03.818Z,1.80
2022-08-19T00:26:33.675Z,1.35
2022-08-19T00:29:03.627Z,1.55
2022-08-19T00:31:32.438Z,1.52
2022-08-19T00:33:59.385Z,1.50
2022-08-19T00:36:26.493Z,1.42
2022-08-19T00:38:54.394Z,1.30
2022-08-19T00:41:25.175Z,1.55
2022-08-19T00:44:26.731Z,1.40
2022-08-19T00:46:58.422Z,1.58
2022-08-19T00:49:53.683Z,1.80
2022-08-19T00:52:35.725Z,2.10
2022-08-19T00:55:03.985Z,2.10
2022-08-19T00:57:35.400Z,2.00
2022-08-19T01:00:04.519Z,2.05
2022-08-19T01:02:32.204Z,2.50
2022-08-19T01:05:01.301Z,2.30
2022-08-19T01:07:28.054Z,1.92
2022-08-19T01:10:02.965Z,1.70
2022-08-19T01:12:29.624Z,1.40
2022-08-19T01:14:56.770Z,1.40
2022-08-19T01:17:25.621Z,1.52
2022-08-19T01:19:52.928Z,1.45
2022-08-19T01:22:28.673Z,1.73
2022-08-19T01:24:58.286Z,1.90
2022-08-19T01:27:26.126Z,1.85
2022-08-19T01:29:52.703Z,1.65
2022-08-19T01:32:32.011Z,1.50
2022-08-19T01:35:02.694Z,1.73
2022-08-19T01:37:31.288Z,1.50
2022-08-19T01:39:58.420Z,1.40
2022-08-19T01:42:30.475Z,1.55
2022-08-19T01:44:57.765Z,1.50
2022-08-19T01:47:24.385Z,1.70
2022-08-19T01:49:51.092Z,1.63
2022-08-19T01:52:17.702Z,2.05
2022-08-19T01:54:44.537Z,2.40
2022-08-19T01:57:15.051Z,2.00
2022-08-19T01:59:43.903Z,1.52
2022-08-19T02:02:10.512Z,1.80
2022-08-19T02:04:39.008Z,1.40
2022-08-19T02:07:07.026Z,1.60
2022-08-19T02:09:33.693Z,1.80
2022-08-19T02:12:00.456Z,1.70
2022-08-19T02:14:27.044Z,1.60
2022-08-19T02:16:53.581Z,1.67
2022-08-19T02:19:20.157Z,1.70
2022-08-19T02:21:47.217Z,1.60
2022-08-19T02:24:13.771Z,1.83
2022-08-19T02:26:40.563Z,1.30
2022-08-19T02:29:07.167Z,2.10
2022-08-19T02:31:34.232Z,1.67
2022-08-19T02:34:01.715Z,1.70
2022-08-19T02:36:28.811Z,1.58
2022-08-19T02:38:58.366Z,1.52
2022-08-19T02:41:29.234Z,1.63
2022-08-19T02:44:29.716Z,1.70
2022-08-19T02:46:53.407Z,1.70
2022-08-19T02:49:21.884Z,2.38
2022-08-19T02:51:48.713Z,2.50
2022-08-19T02:54:15.945Z,3.00
2022-08-19T02:56:45.447Z,2.75
2022-08-19T02:59:13.195Z,2.65
2022-08-19T03:01:43.401Z,2.92
2022-08-19T03:04:14.651Z,2.75
2022-08-19T03:06:46.345Z,2.92
2022-08-19T03:09:15.263Z,2.75
2022-08-19T03:11:43.353Z,2.65
2022-08-19T03:14:12.468Z,2.80
2022-08-19T03:16:46.540Z,2.85
2022-08-19T03:19:14.841Z,2.55
2022-08-19T03:21:44.524Z,2.60
2022-08-19T03:24:12.621Z,2.67
2022-08-19T03:26:44.067Z,2.83
2022-08-19T03:29:11.858Z,2.83
2022-08-19T03:31:51.991Z,3.13
2022-08-19T03:34:29.651Z,3.17
2022-08-19T03:36:58.678Z,2.53
2022-08-19T03:39:26.242Z,3.30
2022-08-19T03:42:29.285Z,3.50
2022-08-19T03:44:46.670Z,3.65
2022-08-19T03:47:17.186Z,3.58
2022-08-19T03:49:44.841Z,3.35
2022-08-19T03:52:11.614Z,2.30
2022-08-19T03:54:39.823Z,2.45
2022-08-19T03:57:07.173Z,3.03
2022-08-19T03:59:38.948Z,3.17
2022-08-19T04:02:10.532Z,3.42
2022-08-19T04:04:39.350Z,2.22
2022-08-19T04:07:06.620Z,2.60
2022-08-19T04:09:35.131Z,3.25
2022-08-19T04:12:01.728Z,3.38
2022-08-19T04:14:33.063Z,3.47
2022-08-19T04:17:01.416Z,3.25
2022-08-19T04:19:30.749Z,4.13
2022-08-19T04:21:57.678Z,3.83
2022-08-19T04:24:25.058Z,2.78
2022-08-19T04:27:05.402Z,2.80
2022-08-19T04:29:44.275Z,2.38
2022-08-19T04:35:02.460Z,3.53
2022-08-19T04:37:44.278Z,2.83
2022-08-19T04:40:44.192Z,2.85
2022-08-19T04:43:18.412Z,3.17
2022-08-19T04:45:45.679Z,2.55
2022-08-19T04:48:26.718Z,2.92
2022-08-19T04:50:58.676Z,3.10
2022-08-19T04:53:34.694Z,2.92
2022-08-19T04:56:08.199Z,2.63
2022-08-19T04:58:37.364Z,2.80
2022-08-19T05:01:05.032Z,2.67
2022-08-19T05:03:34.451Z,2.40
2022-08-19T05:06:09.330Z,2.28
2022-08-19T05:08:44.043Z,2.50
2022-08-19T05:11:32.617Z,2.60
2022-08-19T05:13:59.819Z,2.10
2022-08-19T05:16:27.602Z,2.35
2022-08-19T05:19:13.911Z,2.67
2022-08-19T05:22:02.910Z,2.60
2022-08-19T05:24:30.691Z,2.92
2022-08-19T05:26:58.956Z,2.95
2022-08-19T05:29:36.125Z,2.70
2022-08-19T05:32:06.538Z,3.28
2022-08-19T05:34:36.880Z,3.55
2022-08-19T05:37:08.514Z,4.05
2022-08-19T05:39:37.692Z,5.00
2022-08-19T05:42:08.076Z,4.57
2022-08-19T05:44:39.263Z,4.25
2022-08-19T05:47:07.701Z,5.30
2022-08-19T05:49:35.621Z,5.90
2022-08-19T05:52:08.559Z,5.43
2022-08-19T05:54:39.007Z,6.80
2022-08-19T05:57:15.574Z,5.65
2022-08-19T05:59:42.944Z,6.70
2022-08-19T06:02:10.171Z,4.38
2022-08-19T06:04:36.748Z,3.55
2022-08-19T06:07:12.719Z,5.93
2022-08-19T06:09:40.723Z,4.28
2022-08-19T06:12:08.011Z,3.97
2022-08-19T06:14:41.679Z,3.85
2022-08-19T06:20:14.592Z,8.55
2022-08-19T06:22:55.112Z,5.72
2022-08-19T06:25:22.588Z,4.65
2022-08-19T06:28:13.991Z,6.03
2022-08-19T06:30:40.495Z,5.53
2022-08-19T06:33:07.053Z,6.18
2022-08-19T06:35:33.659Z,5.82
2022-08-19T06:38:03.409Z,6.45
2022-08-19T06:40:31.628Z,9.57
2022-08-19T06:43:01.814Z,4.93
2022-08-19T06:48:54.369Z,4.70
2022-08-19T06:56:43.768Z,6.50
2022-08-19T06:59:28.168Z,5.63
2022-08-19T07:02:06.540Z,6.13
2022-08-19T07:04:35.610Z,5.60
2022-08-19T07:07:20.892Z,5.47
2022-08-19T07:09:51.840Z,5.43
2022-08-19T07:12:28.135Z,5.85
2022-08-19T07:14:56.245Z,6.57
2022-08-19T07:17:24.553Z,8.05
2022-08-19T07:19:51.499Z,9.77
2022-08-19T07:22:21.705Z,9.30
2022-08-19T07:24:51.552Z,9.10
2022-08-19T07:27:24.437Z,12.27
2022-08-19T07:29:56.044Z,10.27
2022-08-19T07:32:26.870Z,11.30
2022-08-19T07:34:56.684Z,10.95
2022-08-19T07:37:27.358Z,11.18
2022-08-19T07:39:56.055Z,10.68
2022-08-19T07:42:22.623Z,13.45
2022-08-19T07:44:50.528Z,13.23
2022-08-19T07:47:49.460Z,12.63
2022-08-19T07:50:08.050Z,12.50
2022-08-19T07:52:36.986Z,12.18
2022-08-19T07:55:05.404Z,11.73
2022-08-19T07:57:32.161Z,13.82
2022-08-19T07:59:59.565Z,12.82
2022-08-19T08:02:26.119Z,12.77
2022-08-19T08:05:11.295Z,12.10
2022-08-19T08:07:56.352Z,11.63
2022-08-19T08:10:24.520Z,9.97
2022-08-19T08:13:08.793Z,9.95
2022-08-19T08:15:42.582Z,10.20
2022-08-19T08:18:10.687Z,10.38
2022-08-19T08:20:37.252Z,12.55
2022-08-19T08:23:22.479Z,10.13
2022-08-19T08:25:49.954Z,10.50
2022-08-19T08:28:18.181Z,11.23
2022-08-19T08:30:46.761Z,10.00
2022-08-19T08:35:46.680Z,11.32
2022-08-19T08:38:14.559Z,11.00
2022-08-19T08:41:07.538Z,9.55
2022-08-19T08:43:38.196Z,10.35
2022-08-19T08:46:31.488Z,12.60
2022-08-19T08:49:06.665Z,12.18
2022-08-19T08:51:38.109Z,12.10
2022-08-19T08:54:09.904Z,10.82
2022-08-19T08:56:39.724Z,11.65
2022-08-19T08:59:21.775Z,11.27
2022-08-19T09:01:48.927Z,10.93
2022-08-19T09:04:16.184Z,12.50
2022-08-19T09:07:18.492Z,11.32
2022-08-19T09:10:15.887Z,11.07
2022-08-19T09:13:09.160Z,12.90
2022-08-19T09:15:43.204Z,10.85
2022-08-19T09:18:15.326Z,10.23
2022-08-19T09:20:50.315Z,11.02
2022-08-19T09:23:16.999Z,10.07
2022-08-19T09:25:43.604Z,9.60
2022-08-19T09:28:22.663Z,9.00
2022-08-19T09:30:53.689Z,9.70
2022-08-19T09:33:20.938Z,10.60
2022-08-19T09:35:53.037Z,12.05
2022-08-19T09:38:21.111Z,9.48
2022-08-19T09:40:47.792Z,9.80
2022-08-19T09:43:14.431Z,9.30
2022-08-19T09:45:41.418Z,10.38
2022-08-19T09:48:09.606Z,10.80
2022-08-19T09:50:51.885Z,10.70
2022-08-19T09:53:19.425Z,10.95
2022-08-19T09:55:46.001Z,9.70
2022-08-19T09:58:12.844Z,10.45
2022-08-19T10:00:39.770Z,9.27
2022-08-19T10:03:07.127Z,9.88
2022-08-19T10:05:50.281Z,9.63
2022-08-19T10:08:30.034Z,8.93
2022-08-19T10:10:59.033Z,10.52
2022-08-19T10:13:29.176Z,10.85
2022-08-19T10:15:58.392Z,12.65
2022-08-19T10:18:26.326Z,13.15
2022-08-19T10:20:54.575Z,11.10
2022-08-19T10:23:22.042Z,11.85
2022-08-19T10:25:49.221Z,12.90
2022-08-19T10:28:16.169Z,14.00
2022-08-19T10:30:46.205Z,12.77
2022-08-19T10:33:13.019Z,14.40
2022-08-19T10:35:56.369Z,12.82
2022-08-19T10:38:31.805Z,13.90
2022-08-19T10:41:14.481Z,13.82
2022-08-19T10:43:41.849Z,15.60
2022-08-19T10:46:14.149Z,14.07
2022-08-19T10:48:44.264Z,15.53
2022-08-19T10:51:30.203Z,12.88
2022-08-19T10:56:42.545Z,11.57
2022-08-19T10:59:09.138Z,13.07
2022-08-19T11:01:36.828Z,12.75
2022-08-19T11:04:06.141Z,12.25
2022-08-19T11:06:33.315Z,12.35
2022-08-19T11:09:00.928Z,12.63
2022-08-19T11:11:29.409Z,12.73
2022-08-19T11:13:56.382Z,14.90
2022-08-19T11:16:25.604Z,13.35
2022-08-19T11:18:55.135Z,13.98
2022-08-19T11:21:28.431Z,12.98
2022-08-19T11:23:58.560Z,12.25
2022-08-19T11:26:26.801Z,12.23
2022-08-19T11:28:55.431Z,12.65
2022-08-19T11:31:28.915Z,12.02
2022-08-19T11:33:58.437Z,11.38
2022-08-19T11:36:24.983Z,12.18
2022-08-19T11:38:52.219Z,11.95
2022-08-19T11:41:21.222Z,10.27
2022-08-19T11:43:48.122Z,11.05
2022-08-19T11:46:16.747Z,9.80
2022-08-19T11:48:43.663Z,9.05
2022-08-19T11:51:14.247Z,8.43
2022-08-19T11:53:41.216Z,7.30
2022-08-19T11:56:09.993Z,6.28
2022-08-19T11:58:37.114Z,5.47
2022-08-19T12:01:08.325Z,5.20
2022-08-19T12:03:35.558Z,4.75
2022-08-19T12:06:14.210Z,4.50
2022-08-19T12:08:41.982Z,4.40
2022-08-19T12:11:11.518Z,3.72
2022-08-19T12:13:39.804Z,3.72
2022-08-19T12:16:13.062Z,3.67
2022-08-19T12:18:43.936Z,3.72
2022-08-19T12:21:11.951Z,3.75
2022-08-19T12:23:38.752Z,3.75
2022-08-19T12:26:05.437Z,2.83
2022-08-19T12:28:32.056Z,3.28
2022-08-19T12:30:58.902Z,3.35
2022-08-19T12:33:28.590Z,2.65
2022-08-19T12:35:56.280Z,3.05
2022-08-19T12:38:25.645Z,2.95
2022-08-19T12:40:56.021Z,2.45
2022-08-19T12:43:25.179Z,2.83
2022-08-19T12:45:51.946Z,2.38
2022-08-19T12:48:33.507Z,2.35
2022-08-19T12:51:06.419Z,2.00
2022-08-19T12:53:32.947Z,2.58
2022-08-19T12:56:01.605Z,2.10
2022-08-19T12:58:29.889Z,2.40
2022-08-19T13:00:56.571Z,2.20
2022-08-19T13:03:28.381Z,2.15
2022-08-19T13:05:54.907Z,2.10
2022-08-19T13:08:21.406Z,2.10
2022-08-19T13:10:48.051Z,2.20
2022-08-19T13:13:14.702Z,1.83
2022-08-19T13:15:42.997Z,2.10
2022-08-19T13:18:11.464Z,2.38
2022-08-19T13:20:41.581Z,2.10
2022-08-19T13:23:09.142Z,1.98
2022-08-19T13:25:37.113Z,2.40
2022-08-19T13:28:04.931Z,2.00
2022-08-19T13:30:49.985Z,2.38
2022-08-19T13:33:16.693Z,2.20
2022-08-19T13:35:45.598Z,2.33
2022-08-19T13:38:13.620Z,2.03
2022-08-19T13:40:41.392Z,2.55
2022-08-19T13:43:17.573Z,2.38
2022-08-19T13:45:57.247Z,2.42
2022-08-19T13:48:27.306Z,2.75
2022-08-19T13:50:55.183Z,2.22
2022-08-19T13:53:21.895Z,2.10
2022-08-19T13:55:48.402Z,2.20
2022-08-19T13:58:15.509Z,1.90
2022-08-19T14:00:46.235Z,2.00
2022-08-19T14:03:13.219Z,2.67
2022-08-19T14:05:39.859Z,2.35
2022-08-19T14:08:06.898Z,2.00
2022-08-19T14:10:34.236Z,2.22
2022-08-19T14:13:04.465Z,1.83
2022-08-19T14:15:31.953Z,1.83
2022-08-19T14:17:59.347Z,2.00
2022-08-19T14:20:26.609Z,1.83
2022-08-19T14:22:53.873Z,2.00
2022-08-19T14:25:23.856Z,1.70
2022-08-19T14:27:50.726Z,2.00
2022-08-19T14:30:21.932Z,1.65
2022-08-19T14:32:48.576Z,1.48
2022-08-19T14:35:16.598Z,1.90
2022-08-19T14:37:46.141Z,1.58
2022-08-19T14:40:21.564Z,1.35
2022-08-19T14:42:49.502Z,1.40
2022-08-19T14:45:16.030Z,1.40
2022-08-19T14:47:42.792Z,1.10
2022-08-19T14:50:18.087Z,1.20
2022-08-19T14:52:48.940Z,1.30
2022-08-19T14:55:18.554Z,0.95
2022-08-19T14:57:46.158Z,1.10
2022-08-19T15:00:14.471Z,1.30
2022-08-19T15:02:42.186Z,1.00
2022-08-19T15:05:09.348Z,0.90
2022-08-19T15:07:35.876Z,0.73
2022-08-19T15:10:02.404Z,0.70
2022-08-19T15:12:29.075Z,0.70
2022-08-19T15:14:56.812Z,0.70
2022-08-19T15:17:44.993Z,0.90
2022-08-19T15:20:13.550Z,0.80
2022-08-19T15:22:40.985Z,0.80
2022-08-19T15:25:09.504Z,1.02
2022-08-19T15:27:40.516Z,0.93
2022-08-19T15:30:09.388Z,0.70
2022-08-19T15:32:37.343Z,0.88
2022-08-19T15:35:06.021Z,1.00
2022-08-19T15:37:37.448Z,0.80
2022-08-19T15:40:06.621Z,0.93
2022-08-19T15:42:33.988Z,0.63
2022-08-19T15:45:01.560Z,0.75
2022-08-19T15:47:35.302Z,0.85
2022-08-19T15:50:11.108Z,1.25
2022-08-19T15:55:32.194Z,0.98
2022-08-19T15:58:28.384Z,0.95
2022-08-19T16:01:20.762Z,0.85
2022-08-19T16:04:11.343Z,0.88
2022-08-19T16:06:46.361Z,0.82
2022-08-19T16:09:13.204Z,0.85
2022-08-19T16:11:40.104Z,0.90
2022-08-19T16:14:09.360Z,1.10
2022-08-19T16:16:37.804Z,1.27
2022-08-19T16:19:10.527Z,1.10
2022-08-19T16:21:41.511Z,1.00
2022-08-19T16:24:10.571Z,1.00
2022-08-19T16:26:37.509Z,0.90
2022-08-19T16:29:09.120Z,1.25
2022-08-19T16:31:42.017Z,0.90
2022-08-19T16:34:08.898Z,1.23
2022-08-19T16:36:35.458Z,1.00
2022-08-19T16:39:03.555Z,1.20
2022-08-19T16:41:30.096Z,0.90
2022-08-19T16:43:56.727Z,1.13
2022-08-19T16:46:26.971Z,1.17
2022-08-19T16:48:54.491Z,1.00
2022-08-19T16:51:21.535Z,1.20
2022-08-19T16:53:49.036Z,1.00
2022-08-19T16:56:15.948Z,0.75
2022-08-19T16:58:42.667Z,0.98
2022-08-19T17:01:10.604Z,1.08
2022-08-19T17:03:39.807Z,0.77
2022-08-19T17:06:21.161Z,0.90
2022-08-19T17:08:53.141Z,1.10
2022-08-19T17:11:21.481Z,0.90
2022-08-19T17:13:49.372Z,0.80
2022-08-19T17:16:18.157Z,0.90
2022-08-19T17:18:44.946Z,1.10
2022-08-19T17:21:13.172Z,1.23
2022-08-19T17:23:43.713Z,0.75
2022-08-19T17:26:18.346Z,0.95
2022-08-19T17:28:50.592Z,0.83
2022-08-19T17:31:18.798Z,0.80
2022-08-19T17:33:46.228Z,0.82
2022-08-19T17:36:15.253Z,0.70
2022-08-19T17:38:42.344Z,0.80
2022-08-19T17:41:09.046Z,0.95
2022-08-19T17:43:42.761Z,0.90
2022-08-19T17:46:10.995Z,0.98
2022-08-19T17:48:40.800Z,1.05
2022-08-19T17:51:33.606Z,1.08
2022-08-19T17:57:18.305Z,0.73
2022-08-19T17:59:56.052Z,0.95
2022-08-19T18:03:19.812Z,0.90
2022-08-19T18:06:10.478Z,0.88
2022-08-19T18:12:26.129Z,0.93
2022-08-19T18:18:30.023Z,0.77
2022-08-19T18:27:48.236Z,0.70
2022-08-19T18:34:10.600Z,0.80
2022-08-19T18:47:22.936Z,0.70
2022-08-19T18:55:44.320Z,0.35
2022-08-19T19:04:36.371Z,0.40
2022-08-19T19:18:46.573Z,0.30
2022-08-19T19:21:14.287Z,0.40
2022-08-19T19:23:41.223Z,0.40
2022-08-19T19:26:12.774Z,0.40
2022-08-19T19:28:44.023Z,0.57
2022-08-19T19:31:13.973Z,0.50
2022-08-19T19:33:42.491Z,0.50
2022-08-19T19:36:09.261Z,0.50
2022-08-19T19:38:36.155Z,0.50
2022-08-19T19:41:03.861Z,0.60
2022-08-19T19:43:31.018Z,0.80
2022-08-19T19:46:08.311Z,0.65
2022-08-19T19:48:35.529Z,0.50
2022-08-19T19:51:04.185Z,0.60
2022-08-19T19:53:30.733Z,0.80
2022-08-19T19:55:58.887Z,1.08
2022-08-19T19:58:28.848Z,0.82
2022-08-19T20:00:56.658Z,0.80
2022-08-19T20:03:23.341Z,0.80
2022-08-19T20:05:49.938Z,0.90
2022-08-19T20:08:36.233Z,0.80
2022-08-19T20:11:05.100Z,0.90
2022-08-19T20:13:32.712Z,1.08
2022-08-19T20:15:59.391Z,0.90
2022-08-19T20:18:26.105Z,1.05
2022-08-19T20:20:52.886Z,0.88
2022-08-19T20:23:22.009Z,1.10
2022-08-19T20:25:49.982Z,0.95
2022-08-19T20:28:16.661Z,1.20
2022-08-19T20:30:46.563Z,1.00
2022-08-19T20:33:14.871Z,0.95
2022-08-19T20:35:43.763Z,0.95
2022-08-19T20:38:10.735Z,1.10
2022-08-19T20:40:37.843Z,1.13
2022-08-19T20:43:14.296Z,1.35
2022-08-19T20:45:41.222Z,1.10
2022-08-19T20:48:10.365Z,1.25
2022-08-19T20:50:38.362Z,1.05
2022-08-19T20:53:13.790Z,1.20
2022-08-19T20:55:44.426Z,1.20
2022-08-19T20:58:13.537Z,1.33
2022-08-19T21:00:40.980Z,1.20
2022-08-19T21:03:07.535Z,1.20
2022-08-19T21:05:34.053Z,1.10
2022-08-19T21:08:00.581Z,1.10
2022-08-19T21:10:27.530Z,1.52
2022-08-19T21:12:55.455Z,1.50
2022-08-19T21:15:22.156Z,1.55
2022-08-19T21:17:48.805Z,1.40
2022-08-19T21:20:15.455Z,1.42
2022-08-19T21:22:41.982Z,1.27
2022-08-19T21:25:08.860Z,1.30
2022-08-19T21:27:35.461Z,1.35
2022-08-19T21:30:02.532Z,1.48
2022-08-19T21:32:29.078Z,1.20
2022-08-19T21:34:55.780Z,1.38
2022-08-19T21:37:25.709Z,1.23
2022-08-19T21:39:54.066Z,1.20
2022-08-19T21:42:21.445Z,1.48
2022-08-19T21:44:48.185Z,1.20
2022-08-19T21:47:15.084Z,1.17
2022-08-19T21:49:41.732Z,1.33
2022-08-19T21:52:09.040Z,1.63
2022-08-19T21:54:38.260Z,1.20
2022-08-19T21:57:10.213Z,1.70
2022-08-19T21:59:37.993Z,1.58
2022-08-19T22:02:19.173Z,1.50
2022-08-19T22:04:47.602Z,1.70
2022-08-19T22:07:15.632Z,1.20
2022-08-19T22:09:43.897Z,1.08
2022-08-19T22:12:23.424Z,1.27
2022-08-19T22:14:51.865Z,1.40
2022-08-19T22:17:19.490Z,1.10
2022-08-19T22:19:46.040Z,1.40
2022-08-19T22:22:13.240Z,1.20
2022-08-19T22:24:39.799Z,1.30
2022-08-19T22:27:06.898Z,1.30
2022-08-19T22:29:36.545Z,0.90
2022-08-19T22:32:17.785Z,1.25
2022-08-19T22:34:52.260Z,1.58
2022-08-19T22:37:23.741Z,0.88
2022-08-19T22:39:50.399Z,1.10
2022-08-19T22:42:22.011Z,1.00
2022-08-19T22:44:49.652Z,1.08
2022-08-19T22:47:16.646Z,1.38
2022-08-19T22:49:44.282Z,1.00
2022-08-19T22:52:20.587Z,1.50
2022-08-19T22:54:52.427Z,1.20
2022-08-19T22:57:20.669Z,1.30
2022-08-19T22:59:52.210Z,1.25
2022-08-19T23:02:21.506Z,1.30
2022-08-19T23:04:48.059Z,1.40
2022-08-19T23:07:14.650Z,1.40
2022-08-19T23:09:41.249Z,1.77
2022-08-19T23:12:09.865Z,1.40
2022-08-19T23:14:37.432Z,1.25
2022-08-19T23:17:05.253Z,1.40
2022-08-19T23:19:32.538Z,1.33
2022-08-19T23:21:59.495Z,1.10
2022-08-19T23:24:26.521Z,1.60
2022-08-19T23:27:12.231Z,1.42
2022-08-19T23:29:59.248Z,1.00
2022-08-19T23:32:25.877Z,1.70
2022-08-19T23:34:56.143Z,1.35
2022-08-19T23:37:23.523Z,1.20
2022-08-19T23:39:50.842Z,1.75
2022-08-19T23:42:17.517Z,1.13
2022-08-19T23:44:52.319Z,1.20
2022-08-19T23:47:24.089Z,1.52
2022-08-19T23:49:52.503Z,1.38
2022-08-19T23:52:19.752Z,1.30
2022-08-19T23:54:47.344Z,1.17
2022-08-19T23:57:14.622Z,1.30
2022-08-19T23:59:42.475Z,1.27
